Aeroporto :
LOGIN :

Iscrizione | Disclaimer

   EN    FR    IT 

 










Sommario :    VFR   VFR Marginale   IFR   IFR Intensivo   IFR Molto Intensivo
Visibilità : 
Base nubi : 
>= 8 km
>= 3000ft
5 / 8 km
1000 / 3000 ft
1500m / 5 km
500 / 1000 ft
800 / 1500m
200 / 500 ft
< 800m
< 200 ft
Simboli :   Temporali  Nebbia  Neve Forte  Precipitazioni Forti  Vento > 20 kt
SIGMETs :   Varie  Temporali  Ghiacco  Turbolenza  Onda orograficha  Ceneri Vulcaniche






- Altitudine del aeroporto : 1966 ft
- Codice IATA : SGE


EDGS - Siegerland

ULTIMO METAR :
  • 191220Z 25007KT 9999 2200W BCFG FEW001 SCT004 BKN008 02/01 Q1015

METARs OBSOLETI :
  • 191150Z 25006KT 9999 2200W BCFG FEW001 SCT003 BKN007 02/01 Q1015
  • 191120Z 27007KT 9999 2200W BCFG FEW001 SCT005 BKN008 02/01 Q1015
  • 191050Z 27009KT 9999 2200W BCFG SCT002 BKN005 02/01 Q1015
  • 191020Z 27011KT 9999 1300W BCFG SCT001 BKN004 02/01 Q1015
  • 190950Z 27012KT 9999 2200W BCFG SCT001 BKN004 02/01 Q1015

TAF TAF EDGS
Valido dal 19 a 12 ore il 19 a 21 ore UTC


191100Z 1912/1921 27007KT 9999 SCT004 BKN007
TEMPO 1912/1914 4000 BR BKN003
BECMG 1914/1917 3500 BR BKN003
TEMPO 1916/1921 1200 RASN BKN001
PROB30
TEMPO 1916/1919 0200 SN VV000



MetMap, La meteo Aeronautica in un colpo d'occhio ! - Copyright ORBIFLY Dicembre 2007 - Disclaimer

ORBIFLY MET'MAP TEAM :

Programmazione e sviluppo : Alexandra Zaïnal
Concezione e sviluppo : Baudouin d'Aumeries
Co-Programmazione e sviluppo : Marc-Olivier Méhu
Supporto tecnico e logistico : Manuel Goepfert
Aiuto per la traduzione : Arnaldo La Scala

Contatto : metmap@orbifly.com




FONTI E CREDITI :

   NOAA